sensor_id;sensor_type;location;lat;lon;timestamp;P1;durP1;ratioP1;P2;durP2;ratioP2
22256;SDS011;11297;42.686;23.374;2022-11-02T00:02:07;18.17;;;11.00;;
22256;SDS011;11297;42.686;23.374;2022-11-02T00:04:32;18.47;;;11.87;;
22256;SDS011;11297;42.686;23.374;2022-11-02T00:06:58;35.10;;;16.33;;
22256;SDS011;11297;42.686;23.374;2022-11-02T00:09:23;38.10;;;22.27;;
22256;SDS011;11297;42.686;23.374;2022-11-02T00:11:48;40.63;;;25.53;;
22256;SDS011;11297;42.686;23.374;2022-11-02T00:14:14;45.97;;;27.93;;
22256;SDS011;11297;42.686;23.374;2022-11-02T00:16:39;51.87;;;29.37;;
22256;SDS011;11297;42.686;23.374;2022-11-02T00:19:05;50.53;;;30.27;;
22256;SDS011;11297;42.686;23.374;2022-11-02T00:21:32;53.90;;;31.37;;
22256;SDS011;11297;42.686;23.374;2022-11-02T00:23:59;51.10;;;30.47;;
22256;SDS011;11297;42.686;23.374;2022-11-02T00:26:25;56.20;;;34.70;;
22256;SDS011;11297;42.686;23.374;2022-11-02T00:28:52;61.80;;;34.30;;
22256;SDS011;11297;42.686;23.374;2022-11-02T00:31:18;63.93;;;33.83;;
22256;SDS011;11297;42.686;23.374;2022-11-02T00:33:43;56.77;;;35.10;;
22256;SDS011;11297;42.686;23.374;2022-11-02T00:36:09;60.30;;;33.13;;
22256;SDS011;11297;42.686;23.374;2022-11-02T00:38:34;54.97;;;32.30;;
22256;SDS011;11297;42.686;23.374;2022-11-02T00:41:00;52.83;;;31.13;;
22256;SDS011;11297;42.686;23.374;2022-11-02T00:43:25;52.13;;;29.80;;
22256;SDS011;11297;42.686;23.374;2022-11-02T00:45:51;48.43;;;31.40;;
22256;SDS011;11297;42.686;23.374;2022-11-02T00:48:16;58.50;;;31.77;;
22256;SDS011;11297;42.686;23.374;2022-11-02T00:50:41;46.13;;;31.30;;
22256;SDS011;11297;42.686;23.374;2022-11-02T00:53:07;58.70;;;35.57;;
22256;SDS011;11297;42.686;23.374;2022-11-02T00:55:32;52.77;;;31.63;;
22256;SDS011;11297;42.686;23.374;2022-11-02T00:57:57;50.27;;;33.03;;
22256;SDS011;11297;42.686;23.374;2022-11-02T01:00:23;43.40;;;28.57;;
22256;SDS011;11297;42.686;23.374;2022-11-02T01:02:48;67.73;;;41.50;;
22256;SDS011;11297;42.686;23.374;2022-11-02T01:05:14;48.80;;;30.73;;
22256;SDS011;11297;42.686;23.374;2022-11-02T01:07:39;69.80;;;35.23;;
22256;SDS011;11297;42.686;23.374;2022-11-02T01:10:06;59.20;;;35.90;;
22256;SDS011;11297;42.686;23.374;2022-11-02T01:12:32;59.47;;;38.47;;
22256;SDS011;11297;42.686;23.374;2022-11-02T01:14:58;62.57;;;38.03;;
22256;SDS011;11297;42.686;23.374;2022-11-02T01:17:23;58.97;;;38.13;;
22256;SDS011;11297;42.686;23.374;2022-11-02T01:19:49;76.03;;;39.77;;
22256;SDS011;11297;42.686;23.374;2022-11-02T01:22:15;71.13;;;43.90;;
22256;SDS011;11297;42.686;23.374;2022-11-02T01:24:40;61.63;;;36.97;;
22256;SDS011;11297;42.686;23.374;2022-11-02T01:27:05;56.17;;;34.50;;
22256;SDS011;11297;42.686;23.374;2022-11-02T01:29:31;47.20;;;30.47;;
22256;SDS011;11297;42.686;23.374;2022-11-02T01:31:56;49.93;;;29.70;;
22256;SDS011;11297;42.686;23.374;2022-11-02T01:34:22;50.40;;;30.17;;
22256;SDS011;11297;42.686;23.374;2022-11-02T01:36:47;42.13;;;27.80;;
22256;SDS011;11297;42.686;23.374;2022-11-02T01:39:13;42.57;;;25.10;;
22256;SDS011;11297;42.686;23.374;2022-11-02T01:41:39;35.70;;;21.63;;
22256;SDS011;11297;42.686;23.374;2022-11-02T01:44:27;39.90;;;26.73;;
22256;SDS011;11297;42.686;23.374;2022-11-02T01:46:58;30.13;;;19.50;;
22256;SDS011;11297;42.686;23.374;2022-11-02T01:49:27;29.83;;;20.17;;
22256;SDS011;11297;42.686;23.374;2022-11-02T01:52:07;33.43;;;19.90;;
22256;SDS011;11297;42.686;23.374;2022-11-02T01:54:36;31.97;;;20.10;;
22256;SDS011;11297;42.686;23.374;2022-11-02T01:57:07;25.53;;;17.20;;
22256;SDS011;11297;42.686;23.374;2022-11-02T02:02:51;35.30;;;22.70;;
22256;SDS011;11297;42.686;23.374;2022-11-02T02:05:24;44.63;;;25.30;;
22256;SDS011;11297;42.686;23.374;2022-11-02T02:07:50;50.07;;;29.20;;
22256;SDS011;11297;42.686;23.374;2022-11-02T02:10:16;44.47;;;27.63;;
22256;SDS011;11297;42.686;23.374;2022-11-02T02:12:42;32.93;;;20.03;;
22256;SDS011;11297;42.686;23.374;2022-11-02T02:15:08;28.90;;;17.40;;
22256;SDS011;11297;42.686;23.374;2022-11-02T02:17:46;27.40;;;16.87;;
22256;SDS011;11297;42.686;23.374;2022-11-02T02:28:31;32.30;;;20.87;;
22256;SDS011;11297;42.686;23.374;2022-11-02T02:34:00;22.00;;;14.10;;
22256;SDS011;11297;42.686;23.374;2022-11-02T02:36:40;23.77;;;14.67;;
22256;SDS011;11297;42.686;23.374;2022-11-02T02:41:47;24.37;;;13.97;;
22256;SDS011;11297;42.686;23.374;2022-11-02T02:44:33;23.37;;;14.17;;
22256;SDS011;11297;42.686;23.374;2022-11-02T02:47:03;20.90;;;15.27;;
22256;SDS011;11297;42.686;23.374;2022-11-02T02:49:36;24.87;;;15.00;;
22256;SDS011;11297;42.686;23.374;2022-11-02T02:52:11;22.50;;;15.33;;
22256;SDS011;11297;42.686;23.374;2022-11-02T02:54:37;25.60;;;13.70;;
22256;SDS011;11297;42.686;23.374;2022-11-02T02:57:07;23.30;;;13.97;;
22256;SDS011;11297;42.686;23.374;2022-11-02T02:59:44;16.63;;;12.23;;
22256;SDS011;11297;42.686;23.374;2022-11-02T03:02:15;21.70;;;14.27;;
22256;SDS011;11297;42.686;23.374;2022-11-02T03:04:44;30.27;;;18.90;;
22256;SDS011;11297;42.686;23.374;2022-11-02T03:07:10;18.80;;;12.20;;
22256;SDS011;11297;42.686;23.374;2022-11-02T03:17:31;29.30;;;17.67;;
22256;SDS011;11297;42.686;23.374;2022-11-02T03:25:27;20.53;;;13.23;;
22256;SDS011;11297;42.686;23.374;2022-11-02T03:28:02;16.67;;;9.83;;
22256;SDS011;11297;42.686;23.374;2022-11-02T03:30:48;15.30;;;9.47;;
22256;SDS011;11297;42.686;23.374;2022-11-02T03:33:29;21.97;;;10.37;;
22256;SDS011;11297;42.686;23.374;2022-11-02T03:38:43;18.83;;;12.47;;
22256;SDS011;11297;42.686;23.374;2022-11-02T03:41:14;17.90;;;11.00;;
22256;SDS011;11297;42.686;23.374;2022-11-02T03:43:41;16.53;;;11.40;;
22256;SDS011;11297;42.686;23.374;2022-11-02T03:46:08;19.57;;;11.53;;
22256;SDS011;11297;42.686;23.374;2022-11-02T03:48:37;17.90;;;10.23;;
22256;SDS011;11297;42.686;23.374;2022-11-02T03:51:06;21.63;;;10.70;;
22256;SDS011;11297;42.686;23.374;2022-11-02T03:56:20;17.77;;;11.67;;
22256;SDS011;11297;42.686;23.374;2022-11-02T03:58:50;19.17;;;11.30;;
22256;SDS011;11297;42.686;23.374;2022-11-02T04:01:15;17.80;;;11.90;;
22256;SDS011;11297;42.686;23.374;2022-11-02T04:03:44;19.60;;;11.20;;
22256;SDS011;11297;42.686;23.374;2022-11-02T04:06:10;21.27;;;12.13;;
22256;SDS011;11297;42.686;23.374;2022-11-02T04:08:38;22.77;;;11.03;;
22256;SDS011;11297;42.686;23.374;2022-11-02T04:11:07;21.13;;;12.60;;
22256;SDS011;11297;42.686;23.374;2022-11-02T04:13:51;20.87;;;13.03;;
22256;SDS011;11297;42.686;23.374;2022-11-02T04:16:35;19.47;;;13.90;;
22256;SDS011;11297;42.686;23.374;2022-11-02T04:19:01;21.47;;;12.77;;
22256;SDS011;11297;42.686;23.374;2022-11-02T04:21:44;17.70;;;12.13;;
22256;SDS011;11297;42.686;23.374;2022-11-02T04:24:28;18.90;;;12.00;;
22256;SDS011;11297;42.686;23.374;2022-11-02T04:27:12;21.27;;;11.77;;
22256;SDS011;11297;42.686;23.374;2022-11-02T04:29:38;21.03;;;13.13;;
22256;SDS011;11297;42.686;23.374;2022-11-02T04:32:03;19.90;;;12.43;;
22256;SDS011;11297;42.686;23.374;2022-11-02T04:34:29;22.57;;;13.13;;
22256;SDS011;11297;42.686;23.374;2022-11-02T04:36:54;18.17;;;12.67;;
22256;SDS011;11297;42.686;23.374;2022-11-02T04:39:19;22.47;;;12.90;;
22256;SDS011;11297;42.686;23.374;2022-11-02T04:41:45;21.87;;;11.30;;
22256;SDS011;11297;42.686;23.374;2022-11-02T04:44:11;22.43;;;12.33;;
22256;SDS011;11297;42.686;23.374;2022-11-02T04:46:42;18.33;;;12.80;;
22256;SDS011;11297;42.686;23.374;2022-11-02T04:49:08;22.33;;;12.43;;
22256;SDS011;11297;42.686;23.374;2022-11-02T04:51:35;20.57;;;11.93;;
22256;SDS011;11297;42.686;23.374;2022-11-02T04:54:01;20.07;;;13.77;;
22256;SDS011;11297;42.686;23.374;2022-11-02T04:56:27;18.60;;;12.23;;
22256;SDS011;11297;42.686;23.374;2022-11-02T04:58:55;21.83;;;13.90;;
22256;SDS011;11297;42.686;23.374;2022-11-02T05:01:23;27.27;;;14.70;;
22256;SDS011;11297;42.686;23.374;2022-11-02T05:03:51;20.43;;;14.27;;
22256;SDS011;11297;42.686;23.374;2022-11-02T05:06:18;21.30;;;15.50;;
22256;SDS011;11297;42.686;23.374;2022-11-02T05:08:44;28.10;;;14.40;;
22256;SDS011;11297;42.686;23.374;2022-11-02T05:11:10;28.27;;;15.23;;
22256;SDS011;11297;42.686;23.374;2022-11-02T05:13:36;23.60;;;14.63;;
22256;SDS011;11297;42.686;23.374;2022-11-02T05:16:03;22.33;;;14.50;;
22256;SDS011;11297;42.686;23.374;2022-11-02T05:18:29;24.83;;;14.77;;
22256;SDS011;11297;42.686;23.374;2022-11-02T05:20:56;24.97;;;15.57;;
22256;SDS011;11297;42.686;23.374;2022-11-02T05:23:23;22.90;;;15.53;;
22256;SDS011;11297;42.686;23.374;2022-11-02T05:25:52;26.80;;;14.43;;
22256;SDS011;11297;42.686;23.374;2022-11-02T05:28:19;25.60;;;15.50;;
22256;SDS011;11297;42.686;23.374;2022-11-02T05:30:45;25.30;;;14.73;;
22256;SDS011;11297;42.686;23.374;2022-11-02T05:33:10;27.57;;;15.80;;
22256;SDS011;11297;42.686;23.374;2022-11-02T05:35:35;30.63;;;17.87;;
22256;SDS011;11297;42.686;23.374;2022-11-02T05:38:01;26.40;;;17.73;;
22256;SDS011;11297;42.686;23.374;2022-11-02T05:40:26;25.03;;;16.73;;
22256;SDS011;11297;42.686;23.374;2022-11-02T05:42:57;26.50;;;17.07;;
22256;SDS011;11297;42.686;23.374;2022-11-02T05:45:23;25.90;;;16.77;;
22256;SDS011;11297;42.686;23.374;2022-11-02T05:47:49;30.67;;;17.60;;
22256;SDS011;11297;42.686;23.374;2022-11-02T05:50:14;34.83;;;17.37;;
22256;SDS011;11297;42.686;23.374;2022-11-02T05:52:40;34.90;;;18.23;;
22256;SDS011;11297;42.686;23.374;2022-11-02T05:55:05;29.90;;;18.20;;
22256;SDS011;11297;42.686;23.374;2022-11-02T05:57:31;28.23;;;15.27;;
22256;SDS011;11297;42.686;23.374;2022-11-02T05:59:56;29.87;;;15.87;;
22256;SDS011;11297;42.686;23.374;2022-11-02T06:02:21;26.40;;;15.37;;
22256;SDS011;11297;42.686;23.374;2022-11-02T06:04:47;31.13;;;19.60;;
22256;SDS011;11297;42.686;23.374;2022-11-02T06:07:12;29.40;;;15.93;;
22256;SDS011;11297;42.686;23.374;2022-11-02T06:09:37;22.70;;;13.93;;
22256;SDS011;11297;42.686;23.374;2022-11-02T06:12:03;31.33;;;16.63;;
22256;SDS011;11297;42.686;23.374;2022-11-02T06:14:29;27.07;;;15.67;;
22256;SDS011;11297;42.686;23.374;2022-11-02T06:16:54;18.33;;;13.23;;
22256;SDS011;11297;42.686;23.374;2022-11-02T06:19:19;21.23;;;14.67;;
22256;SDS011;11297;42.686;23.374;2022-11-02T06:21:45;23.13;;;13.23;;
22256;SDS011;11297;42.686;23.374;2022-11-02T06:24:10;28.70;;;14.23;;
22256;SDS011;11297;42.686;23.374;2022-11-02T06:26:35;21.90;;;15.03;;
22256;SDS011;11297;42.686;23.374;2022-11-02T06:29:01;29.13;;;15.03;;
22256;SDS011;11297;42.686;23.374;2022-11-02T06:31:26;22.80;;;13.97;;
22256;SDS011;11297;42.686;23.374;2022-11-02T06:33:52;22.50;;;13.67;;
22256;SDS011;11297;42.686;23.374;2022-11-02T06:36:17;27.90;;;15.07;;
22256;SDS011;11297;42.686;23.374;2022-11-02T06:38:42;33.47;;;18.97;;
22256;SDS011;11297;42.686;23.374;2022-11-02T06:41:10;34.60;;;18.90;;
22256;SDS011;11297;42.686;23.374;2022-11-02T06:43:36;31.90;;;20.53;;
22256;SDS011;11297;42.686;23.374;2022-11-02T06:46:02;32.70;;;22.17;;
22256;SDS011;11297;42.686;23.374;2022-11-02T06:48:28;38.83;;;25.23;;
22256;SDS011;11297;42.686;23.374;2022-11-02T06:50:53;38.43;;;24.10;;
22256;SDS011;11297;42.686;23.374;2022-11-02T06:53:19;27.77;;;18.67;;
22256;SDS011;11297;42.686;23.374;2022-11-02T06:55:44;24.47;;;17.30;;
22256;SDS011;11297;42.686;23.374;2022-11-02T06:58:15;24.80;;;15.37;;
22256;SDS011;11297;42.686;23.374;2022-11-02T07:00:41;35.20;;;23.10;;
22256;SDS011;11297;42.686;23.374;2022-11-02T07:03:08;29.47;;;18.23;;
22256;SDS011;11297;42.686;23.374;2022-11-02T07:05:35;27.17;;;19.50;;
22256;SDS011;11297;42.686;23.374;2022-11-02T07:08:01;28.00;;;19.93;;
22256;SDS011;11297;42.686;23.374;2022-11-02T07:10:27;26.40;;;20.77;;
22256;SDS011;11297;42.686;23.374;2022-11-02T07:12:53;37.93;;;21.57;;
22256;SDS011;11297;42.686;23.374;2022-11-02T07:15:19;26.10;;;17.90;;
22256;SDS011;11297;42.686;23.374;2022-11-02T07:17:45;23.23;;;17.33;;
22256;SDS011;11297;42.686;23.374;2022-11-02T07:20:11;28.33;;;18.30;;
22256;SDS011;11297;42.686;23.374;2022-11-02T07:22:36;24.10;;;15.77;;
22256;SDS011;11297;42.686;23.374;2022-11-02T07:25:02;28.53;;;19.10;;
22256;SDS011;11297;42.686;23.374;2022-11-02T07:27:27;25.90;;;15.93;;
22256;SDS011;11297;42.686;23.374;2022-11-02T07:29:53;26.40;;;17.47;;
22256;SDS011;11297;42.686;23.374;2022-11-02T07:32:18;29.70;;;18.07;;
22256;SDS011;11297;42.686;23.374;2022-11-02T07:34:44;28.33;;;18.37;;
22256;SDS011;11297;42.686;23.374;2022-11-02T07:37:09;23.87;;;16.93;;
22256;SDS011;11297;42.686;23.374;2022-11-02T07:39:34;25.00;;;16.40;;
22256;SDS011;11297;42.686;23.374;2022-11-02T07:42:00;20.90;;;16.27;;
22256;SDS011;11297;42.686;23.374;2022-11-02T07:44:25;24.27;;;16.20;;
22256;SDS011;11297;42.686;23.374;2022-11-02T07:46:50;21.57;;;14.80;;
22256;SDS011;11297;42.686;23.374;2022-11-02T07:49:16;26.67;;;15.17;;
22256;SDS011;11297;42.686;23.374;2022-11-02T07:51:41;25.93;;;16.73;;
22256;SDS011;11297;42.686;23.374;2022-11-02T07:54:07;22.87;;;14.13;;
22256;SDS011;11297;42.686;23.374;2022-11-02T07:56:33;22.33;;;17.10;;
22256;SDS011;11297;42.686;23.374;2022-11-02T07:58:58;19.23;;;13.90;;
22256;SDS011;11297;42.686;23.374;2022-11-02T08:01:24;26.53;;;16.40;;
22256;SDS011;11297;42.686;23.374;2022-11-02T08:03:49;25.97;;;15.47;;
22256;SDS011;11297;42.686;23.374;2022-11-02T08:06:15;24.93;;;16.23;;
22256;SDS011;11297;42.686;23.374;2022-11-02T08:08:40;27.50;;;17.80;;
22256;SDS011;11297;42.686;23.374;2022-11-02T08:11:06;22.97;;;14.40;;
22256;SDS011;11297;42.686;23.374;2022-11-02T08:13:33;27.97;;;15.83;;
22256;SDS011;11297;42.686;23.374;2022-11-02T08:15:59;28.80;;;16.33;;
22256;SDS011;11297;42.686;23.374;2022-11-02T08:18:25;27.17;;;15.87;;
22256;SDS011;11297;42.686;23.374;2022-11-02T08:20:53;21.47;;;15.30;;
22256;SDS011;11297;42.686;23.374;2022-11-02T08:23:20;30.57;;;15.37;;
22256;SDS011;11297;42.686;23.374;2022-11-02T08:25:46;27.47;;;17.53;;
22256;SDS011;11297;42.686;23.374;2022-11-02T08:28:14;22.93;;;14.77;;
22256;SDS011;11297;42.686;23.374;2022-11-02T08:30:42;22.67;;;14.83;;
22256;SDS011;11297;42.686;23.374;2022-11-02T08:33:09;24.47;;;14.70;;
22256;SDS011;11297;42.686;23.374;2022-11-02T08:35:37;30.97;;;16.80;;
22256;SDS011;11297;42.686;23.374;2022-11-02T08:38:04;20.67;;;12.93;;
22256;SDS011;11297;42.686;23.374;2022-11-02T08:40:30;23.97;;;16.33;;
22256;SDS011;11297;42.686;23.374;2022-11-02T08:42:57;23.87;;;15.53;;
22256;SDS011;11297;42.686;23.374;2022-11-02T08:45:24;28.20;;;15.57;;
22256;SDS011;11297;42.686;23.374;2022-11-02T08:47:50;30.23;;;16.93;;
22256;SDS011;11297;42.686;23.374;2022-11-02T08:50:19;24.97;;;16.40;;
22256;SDS011;11297;42.686;23.374;2022-11-02T08:52:44;25.48;;;16.33;;
22256;SDS011;11297;42.686;23.374;2022-11-02T08:55:10;22.60;;;13.07;;
22256;SDS011;11297;42.686;23.374;2022-11-02T08:57:48;22.20;;;15.07;;
22256;SDS011;11297;42.686;23.374;2022-11-02T09:00:15;29.03;;;14.90;;
22256;SDS011;11297;42.686;23.374;2022-11-02T09:02:42;27.50;;;15.63;;
22256;SDS011;11297;42.686;23.374;2022-11-02T09:05:08;20.10;;;15.07;;
22256;SDS011;11297;42.686;23.374;2022-11-02T09:07:34;22.47;;;14.03;;
22256;SDS011;11297;42.686;23.374;2022-11-02T09:10:00;28.23;;;15.17;;
22256;SDS011;11297;42.686;23.374;2022-11-02T09:12:25;25.87;;;13.07;;
22256;SDS011;11297;42.686;23.374;2022-11-02T09:14:51;25.27;;;15.03;;
22256;SDS011;11297;42.686;23.374;2022-11-02T09:17:16;26.97;;;15.77;;
22256;SDS011;11297;42.686;23.374;2022-11-02T09:19:42;22.60;;;13.60;;
22256;SDS011;11297;42.686;23.374;2022-11-02T09:22:07;22.00;;;14.97;;
22256;SDS011;11297;42.686;23.374;2022-11-02T09:24:33;21.33;;;15.27;;
22256;SDS011;11297;42.686;23.374;2022-11-02T09:26:58;21.77;;;15.13;;
22256;SDS011;11297;42.686;23.374;2022-11-02T09:29:23;24.83;;;16.03;;
22256;SDS011;11297;42.686;23.374;2022-11-02T09:31:49;27.40;;;14.67;;
22256;SDS011;11297;42.686;23.374;2022-11-02T09:34:14;27.73;;;15.87;;
22256;SDS011;11297;42.686;23.374;2022-11-02T09:36:40;32.00;;;15.33;;
22256;SDS011;11297;42.686;23.374;2022-11-02T09:39:06;25.50;;;15.77;;
22256;SDS011;11297;42.686;23.374;2022-11-02T09:46:36;28.00;;;16.83;;
22256;SDS011;11297;42.686;23.374;2022-11-02T09:49:04;25.27;;;14.90;;
22256;SDS011;11297;42.686;23.374;2022-11-02T09:51:37;21.03;;;15.20;;
22256;SDS011;11297;42.686;23.374;2022-11-02T09:54:14;26.40;;;16.53;;
22256;SDS011;11297;42.686;23.374;2022-11-02T09:56:45;26.33;;;15.73;;
22256;SDS011;11297;42.686;23.374;2022-11-02T09:59:16;26.97;;;17.40;;
22256;SDS011;11297;42.686;23.374;2022-11-02T10:01:46;25.23;;;16.17;;
22256;SDS011;11297;42.686;23.374;2022-11-02T10:07:19;30.23;;;15.07;;
22256;SDS011;11297;42.686;23.374;2022-11-02T10:10:03;26.60;;;15.23;;
22256;SDS011;11297;42.686;23.374;2022-11-02T10:15:37;25.77;;;14.20;;
22256;SDS011;11297;42.686;23.374;2022-11-02T10:18:08;26.40;;;14.90;;
22256;SDS011;11297;42.686;23.374;2022-11-02T10:20:40;24.73;;;14.43;;
22256;SDS011;11297;42.686;23.374;2022-11-02T10:23:15;24.37;;;14.37;;
22256;SDS011;11297;42.686;23.374;2022-11-02T10:25:46;25.00;;;13.83;;
22256;SDS011;11297;42.686;23.374;2022-11-02T10:28:14;23.40;;;16.43;;
22256;SDS011;11297;42.686;23.374;2022-11-02T10:30:43;26.50;;;13.70;;
22256;SDS011;11297;42.686;23.374;2022-11-02T10:33:10;23.17;;;13.30;;
22256;SDS011;11297;42.686;23.374;2022-11-02T10:35:43;21.80;;;14.33;;
22256;SDS011;11297;42.686;23.374;2022-11-02T10:47:19;23.57;;;12.80;;
22256;SDS011;11297;42.686;23.374;2022-11-02T10:52:42;29.10;;;14.87;;
22256;SDS011;11297;42.686;23.374;2022-11-02T10:58:00;22.77;;;12.63;;
22256;SDS011;11297;42.686;23.374;2022-11-02T11:00:35;28.43;;;12.60;;
22256;SDS011;11297;42.686;23.374;2022-11-02T11:03:10;27.70;;;13.20;;
22256;SDS011;11297;42.686;23.374;2022-11-02T11:05:53;28.40;;;11.97;;
22256;SDS011;11297;42.686;23.374;2022-11-02T11:11:21;21.70;;;10.17;;
22256;SDS011;11297;42.686;23.374;2022-11-02T11:13:53;29.47;;;12.37;;
22256;SDS011;11297;42.686;23.374;2022-11-02T11:16:28;19.53;;;9.87;;
22256;SDS011;11297;42.686;23.374;2022-11-02T11:19:03;18.67;;;9.40;;
22256;SDS011;11297;42.686;23.374;2022-11-02T11:21:39;19.87;;;9.80;;
22256;SDS011;11297;42.686;23.374;2022-11-02T11:29:35;26.70;;;9.37;;
22256;SDS011;11297;42.686;23.374;2022-11-02T11:32:03;17.07;;;9.00;;
22256;SDS011;11297;42.686;23.374;2022-11-02T11:34:32;20.17;;;9.23;;
22256;SDS011;11297;42.686;23.374;2022-11-02T11:37:03;17.37;;;9.23;;
22256;SDS011;11297;42.686;23.374;2022-11-02T11:39:30;26.17;;;9.47;;
22256;SDS011;11297;42.686;23.374;2022-11-02T11:41:56;20.67;;;9.57;;
22256;SDS011;11297;42.686;23.374;2022-11-02T11:44:22;18.70;;;8.30;;
22256;SDS011;11297;42.686;23.374;2022-11-02T11:46:52;14.93;;;6.53;;
22256;SDS011;11297;42.686;23.374;2022-11-02T11:49:31;12.43;;;5.97;;
22256;SDS011;11297;42.686;23.374;2022-11-02T11:51:59;14.73;;;5.20;;
22256;SDS011;11297;42.686;23.374;2022-11-02T11:54:29;13.83;;;6.10;;
22256;SDS011;11297;42.686;23.374;2022-11-02T11:57:00;17.47;;;7.23;;
22256;SDS011;11297;42.686;23.374;2022-11-02T11:59:47;15.93;;;7.00;;
22256;SDS011;11297;42.686;23.374;2022-11-02T12:02:20;13.23;;;5.57;;
22256;SDS011;11297;42.686;23.374;2022-11-02T12:04:51;15.77;;;5.67;;
22256;SDS011;11297;42.686;23.374;2022-11-02T12:10:14;16.20;;;6.37;;
22256;SDS011;11297;42.686;23.374;2022-11-02T12:12:59;11.63;;;5.93;;
22256;SDS011;11297;42.686;23.374;2022-11-02T12:15:35;19.03;;;6.37;;
22256;SDS011;11297;42.686;23.374;2022-11-02T12:30:12;13.50;;;5.07;;
22256;SDS011;11297;42.686;23.374;2022-11-02T12:32:54;11.43;;;5.13;;
22256;SDS011;11297;42.686;23.374;2022-11-02T12:43:56;13.13;;;4.73;;
22256;SDS011;11297;42.686;23.374;2022-11-02T12:46:53;10.93;;;3.83;;
22256;SDS011;11297;42.686;23.374;2022-11-02T12:52:20;11.73;;;4.43;;
22256;SDS011;11297;42.686;23.374;2022-11-02T12:54:59;13.33;;;4.40;;
22256;SDS011;11297;42.686;23.374;2022-11-02T12:57:28;11.97;;;4.10;;
22256;SDS011;11297;42.686;23.374;2022-11-02T12:59:59;19.50;;;5.07;;
22256;SDS011;11297;42.686;23.374;2022-11-02T13:05:01;16.17;;;4.90;;
22256;SDS011;11297;42.686;23.374;2022-11-02T13:07:38;13.30;;;4.37;;
22256;SDS011;11297;42.686;23.374;2022-11-02T13:10:14;9.43;;;4.80;;
22256;SDS011;11297;42.686;23.374;2022-11-02T13:12:45;9.50;;;4.03;;
22256;SDS011;11297;42.686;23.374;2022-11-02T13:15:16;13.37;;;4.57;;
22256;SDS011;11297;42.686;23.374;2022-11-02T13:17:55;10.77;;;4.10;;
22256;SDS011;11297;42.686;23.374;2022-11-02T13:20:26;12.33;;;4.50;;
22256;SDS011;11297;42.686;23.374;2022-11-02T13:25:47;11.97;;;4.33;;
22256;SDS011;11297;42.686;23.374;2022-11-02T13:28:22;11.23;;;4.73;;
22256;SDS011;11297;42.686;23.374;2022-11-02T13:30:55;10.77;;;4.43;;
22256;SDS011;11297;42.686;23.374;2022-11-02T13:33:25;14.40;;;4.23;;
22256;SDS011;11297;42.686;23.374;2022-11-02T13:35:54;15.13;;;4.00;;
22256;SDS011;11297;42.686;23.374;2022-11-02T13:38:38;9.23;;;4.37;;
22256;SDS011;11297;42.686;23.374;2022-11-02T13:49:53;12.07;;;4.23;;
22256;SDS011;11297;42.686;23.374;2022-11-02T13:53:24;9.70;;;4.67;;
22256;SDS011;11297;42.686;23.374;2022-11-02T13:55:24;6.73;;;4.00;;
22256;SDS011;11297;42.686;23.374;2022-11-02T13:58:02;10.73;;;4.77;;
22256;SDS011;11297;42.686;23.374;2022-11-02T14:00:50;10.67;;;4.03;;
22256;SDS011;11297;42.686;23.374;2022-11-02T14:03:18;8.50;;;4.50;;
22256;SDS011;11297;42.686;23.374;2022-11-02T14:05:57;11.63;;;4.87;;
22256;SDS011;11297;42.686;23.374;2022-11-02T14:08:38;11.43;;;4.53;;
22256;SDS011;11297;42.686;23.374;2022-11-02T14:26:59;13.97;;;5.13;;
22256;SDS011;11297;42.686;23.374;2022-11-02T14:32:16;9.73;;;5.37;;
22256;SDS011;11297;42.686;23.374;2022-11-02T14:35:12;11.87;;;5.33;;
22256;SDS011;11297;42.686;23.374;2022-11-02T14:46:59;10.53;;;5.90;;
22256;SDS011;11297;42.686;23.374;2022-11-02T14:49:37;16.60;;;5.43;;
22256;SDS011;11297;42.686;23.374;2022-11-02T14:54:37;11.93;;;6.53;;
22256;SDS011;11297;42.686;23.374;2022-11-02T14:57:16;15.30;;;6.63;;
22256;SDS011;11297;42.686;23.374;2022-11-02T14:59:49;18.20;;;6.17;;
22256;SDS011;11297;42.686;23.374;2022-11-02T15:05:00;19.83;;;6.90;;
22256;SDS011;11297;42.686;23.374;2022-11-02T15:10:40;18.20;;;6.37;;
22256;SDS011;11297;42.686;23.374;2022-11-02T15:18:23;12.47;;;5.20;;
22256;SDS011;11297;42.686;23.374;2022-11-02T15:23:44;14.87;;;5.97;;
22256;SDS011;11297;42.686;23.374;2022-11-02T15:26:18;15.03;;;7.40;;
22256;SDS011;11297;42.686;23.374;2022-11-02T15:29:01;10.37;;;6.50;;
22256;SDS011;11297;42.686;23.374;2022-11-02T15:31:29;10.83;;;5.37;;
22256;SDS011;11297;42.686;23.374;2022-11-02T15:34:01;14.33;;;6.20;;
22256;SDS011;11297;42.686;23.374;2022-11-02T15:36:34;16.13;;;8.57;;
22256;SDS011;11297;42.686;23.374;2022-11-02T15:39:03;8.67;;;5.70;;
22256;SDS011;11297;42.686;23.374;2022-11-02T15:44:23;12.93;;;6.03;;
22256;SDS011;11297;42.686;23.374;2022-11-02T15:47:05;8.93;;;5.73;;
22256;SDS011;11297;42.686;23.374;2022-11-02T15:55:21;10.37;;;5.93;;
22256;SDS011;11297;42.686;23.374;2022-11-02T16:00:26;13.40;;;7.13;;
22256;SDS011;11297;42.686;23.374;2022-11-02T16:02:58;12.57;;;6.33;;
22256;SDS011;11297;42.686;23.374;2022-11-02T16:05:28;14.07;;;6.67;;
22256;SDS011;11297;42.686;23.374;2022-11-02T16:07:56;12.37;;;5.83;;
22256;SDS011;11297;42.686;23.374;2022-11-02T16:10:26;14.17;;;6.37;;
22256;SDS011;11297;42.686;23.374;2022-11-02T16:12:59;10.23;;;6.37;;
22256;SDS011;11297;42.686;23.374;2022-11-02T16:15:30;15.37;;;6.33;;
22256;SDS011;11297;42.686;23.374;2022-11-02T16:17:55;17.87;;;8.43;;
22256;SDS011;11297;42.686;23.374;2022-11-02T16:25:34;16.23;;;8.57;;
22256;SDS011;11297;42.686;23.374;2022-11-02T16:28:20;17.47;;;8.47;;
22256;SDS011;11297;42.686;23.374;2022-11-02T16:30:57;17.60;;;7.40;;
22256;SDS011;11297;42.686;23.374;2022-11-02T16:33:25;21.37;;;8.30;;
22256;SDS011;11297;42.686;23.374;2022-11-02T16:35:53;17.33;;;8.40;;
22256;SDS011;11297;42.686;23.374;2022-11-02T16:38:19;19.40;;;7.73;;
22256;SDS011;11297;42.686;23.374;2022-11-02T16:40:46;14.17;;;8.40;;
22256;SDS011;11297;42.686;23.374;2022-11-02T16:43:11;22.00;;;9.00;;
22256;SDS011;11297;42.686;23.374;2022-11-02T16:45:38;16.80;;;8.37;;
22256;SDS011;11297;42.686;23.374;2022-11-02T16:48:25;18.57;;;8.90;;
22256;SDS011;11297;42.686;23.374;2022-11-02T16:53:36;15.87;;;8.40;;
22256;SDS011;11297;42.686;23.374;2022-11-02T16:56:16;17.77;;;8.73;;
22256;SDS011;11297;42.686;23.374;2022-11-02T16:58:51;16.77;;;9.07;;
22256;SDS011;11297;42.686;23.374;2022-11-02T17:01:23;15.13;;;8.03;;
22256;SDS011;11297;42.686;23.374;2022-11-02T17:03:50;19.47;;;9.03;;
22256;SDS011;11297;42.686;23.374;2022-11-02T17:06:16;23.63;;;9.57;;
22256;SDS011;11297;42.686;23.374;2022-11-02T17:08:43;18.73;;;8.90;;
22256;SDS011;11297;42.686;23.374;2022-11-02T17:11:14;22.70;;;8.17;;
22256;SDS011;11297;42.686;23.374;2022-11-02T17:13:48;17.07;;;7.93;;
22256;SDS011;11297;42.686;23.374;2022-11-02T17:16:16;16.83;;;9.07;;
22256;SDS011;11297;42.686;23.374;2022-11-02T17:18:42;19.83;;;8.60;;
22256;SDS011;11297;42.686;23.374;2022-11-02T17:23:36;15.43;;;8.43;;